Weather in selectable METAR weather stations Station search

1) Select the Continent / Group:

[Europe]  [Asia]  [Africa]  [North America]  [South America]  
[Central America and Caribbean]  [Oceania]  [Antarctica]  
2) Select the Weather station (City):


METAR = EFHK 080350Z 36003KT CAVOK M19/M21 Q1019 NOSIG

STATIONEFHK
NAMEHelsinki/Vantaa Arpt, UU, FI
OBSERVED08.12.2021 05:50 (08.12.2021 03:50 UTC), 11 min ago
TEMPERATURE-19.0°C ( -2°F)
WINDCHILL-23.4 °C (-10 °F)
WINDN (360 degrees) at 3 MPH (3 knots; 1.5 m/s)
HUMIDITY84%
PRESSURE1019 hPa
Click here to search the weather station or to give the station identifier
(four-character ICAO Location Indicator) for weather data.